sensor_id;sensor_type;location;lat;lon;timestamp;temperature;humidity
62154;DHT22;48140;45.486;9.226;2023-01-25T00:00:16;8.30;99.90
62154;DHT22;48140;45.486;9.226;2023-01-25T00:02:42;8.20;99.90
62154;DHT22;48140;45.486;9.226;2023-01-25T00:05:08;8.20;99.90
62154;DHT22;48140;45.486;9.226;2023-01-25T00:07:33;8.30;99.90
62154;DHT22;48140;45.486;9.226;2023-01-25T00:09:59;8.30;99.90
62154;DHT22;48140;45.486;9.226;2023-01-25T00:12:25;8.20;99.90
62154;DHT22;48140;45.486;9.226;2023-01-25T00:14:51;8.10;99.90
62154;DHT22;48140;45.486;9.226;2023-01-25T00:17:20;8.10;99.90
62154;DHT22;48140;45.486;9.226;2023-01-25T00:19:45;8.10;99.90
62154;DHT22;48140;45.486;9.226;2023-01-25T00:22:11;8.00;99.90
62154;DHT22;48140;45.486;9.226;2023-01-25T00:24:36;8.00;99.90
62154;DHT22;48140;45.486;9.226;2023-01-25T00:27:02;8.00;99.90
62154;DHT22;48140;45.486;9.226;2023-01-25T00:29:28;8.00;99.90
62154;DHT22;48140;45.486;9.226;2023-01-25T00:32:02;8.00;99.90
62154;DHT22;48140;45.486;9.226;2023-01-25T00:34:49;8.00;99.90
62154;DHT22;48140;45.486;9.226;2023-01-25T00:37:24;8.00;99.90
62154;DHT22;48140;45.486;9.226;2023-01-25T00:39:52;8.00;99.90
62154;DHT22;48140;45.486;9.226;2023-01-25T00:42:18;8.00;99.90
62154;DHT22;48140;45.486;9.226;2023-01-25T00:44:44;8.00;99.90
62154;DHT22;48140;45.486;9.226;2023-01-25T00:47:11;7.90;99.90
62154;DHT22;48140;45.486;9.226;2023-01-25T00:49:38;7.90;99.90
62154;DHT22;48140;45.486;9.226;2023-01-25T00:52:04;7.90;99.90
62154;DHT22;48140;45.486;9.226;2023-01-25T00:54:30;7.90;99.90
62154;DHT22;48140;45.486;9.226;2023-01-25T00:56:55;7.90;99.90
62154;DHT22;48140;45.486;9.226;2023-01-25T00:59:22;8.00;99.90
62154;DHT22;48140;45.486;9.226;2023-01-25T01:01:48;7.90;99.90
62154;DHT22;48140;45.486;9.226;2023-01-25T01:04:14;7.90;99.90
62154;DHT22;48140;45.486;9.226;2023-01-25T01:06:40;7.90;99.90
62154;DHT22;48140;45.486;9.226;2023-01-25T01:09:10;8.00;99.90
62154;DHT22;48140;45.486;9.226;2023-01-25T01:11:36;8.00;99.90
62154;DHT22;48140;45.486;9.226;2023-01-25T01:14:01;8.00;99.90
62154;DHT22;48140;45.486;9.226;2023-01-25T01:16:27;8.00;99.90
62154;DHT22;48140;45.486;9.226;2023-01-25T01:18:52;7.90;99.90
62154;DHT22;48140;45.486;9.226;2023-01-25T01:21:19;7.90;99.90
62154;DHT22;48140;45.486;9.226;2023-01-25T01:23:44;7.80;99.90
62154;DHT22;48140;45.486;9.226;2023-01-25T01:26:12;7.80;99.90
62154;DHT22;48140;45.486;9.226;2023-01-25T01:28:38;7.80;99.90
62154;DHT22;48140;45.486;9.226;2023-01-25T01:31:16;7.90;99.90
62154;DHT22;48140;45.486;9.226;2023-01-25T01:33:42;7.80;99.90
62154;DHT22;48140;45.486;9.226;2023-01-25T01:36:08;7.80;99.90
62154;DHT22;48140;45.486;9.226;2023-01-25T01:38:35;7.80;99.90
62154;DHT22;48140;45.486;9.226;2023-01-25T01:41:00;7.70;99.90
62154;DHT22;48140;45.486;9.226;2023-01-25T01:43:26;7.80;99.90
62154;DHT22;48140;45.486;9.226;2023-01-25T01:45:57;7.80;99.90
62154;DHT22;48140;45.486;9.226;2023-01-25T01:51:39;7.80;99.90
62154;DHT22;48140;45.486;9.226;2023-01-25T01:54:19;7.70;99.90
62154;DHT22;48140;45.486;9.226;2023-01-25T01:57:03;7.80;99.90
62154;DHT22;48140;45.486;9.226;2023-01-25T01:59:36;7.80;99.90
62154;DHT22;48140;45.486;9.226;2023-01-25T05:50:58;7.30;99.90
62154;DHT22;48140;45.486;9.226;2023-01-25T06:14:07;7.00;99.90
62154;DHT22;48140;45.486;9.226;2023-01-25T06:16:32;7.00;99.90
62154;DHT22;48140;45.486;9.226;2023-01-25T06:26:44;7.10;99.90
62154;DHT22;48140;45.486;9.226;2023-01-25T06:29:10;7.00;99.90
62154;DHT22;48140;45.486;9.226;2023-01-25T06:31:35;7.00;99.90
62154;DHT22;48140;45.486;9.226;2023-01-25T06:34:01;7.00;99.90
62154;DHT22;48140;45.486;9.226;2023-01-25T06:36:31;7.00;99.90
62154;DHT22;48140;45.486;9.226;2023-01-25T11:45:06;10.00;85.50
62154;DHT22;48140;45.486;9.226;2023-01-25T12:24:12;10.40;88.50
62154;DHT22;48140;45.486;9.226;2023-01-25T12:39:47;11.10;84.90
62154;DHT22;48140;45.486;9.226;2023-01-25T12:42:18;11.30;84.30
62154;DHT22;48140;45.486;9.226;2023-01-25T12:52:34;11.50;81.80
62154;DHT22;48140;45.486;9.226;2023-01-25T12:55:06;11.50;81.10
62154;DHT22;48140;45.486;9.226;2023-01-25T13:00:27;11.30;81.40
62154;DHT22;48140;45.486;9.226;2023-01-25T13:08:31;10.70;85.00
62154;DHT22;48140;45.486;9.226;2023-01-25T13:44:29;11.70;78.80
62154;DHT22;48140;45.486;9.226;2023-01-25T13:46:58;11.70;79.90
62154;DHT22;48140;45.486;9.226;2023-01-25T13:49:35;11.70;81.30
62154;DHT22;48140;45.486;9.226;2023-01-25T13:52:04;11.70;79.50
62154;DHT22;48140;45.486;9.226;2023-01-25T13:54:29;11.80;79.20
62154;DHT22;48140;45.486;9.226;2023-01-25T14:02:22;12.80;77.90
62154;DHT22;48140;45.486;9.226;2023-01-25T14:10:02;17.00;59.60
62154;DHT22;48140;45.486;9.226;2023-01-25T14:12:41;17.80;55.30
62154;DHT22;48140;45.486;9.226;2023-01-25T14:15:26;18.30;51.80
62154;DHT22;48140;45.486;9.226;2023-01-25T14:18:29;18.80;49.10
62154;DHT22;48140;45.486;9.226;2023-01-25T14:23:34;19.20;46.30
62154;DHT22;48140;45.486;9.226;2023-01-25T14:26:00;19.30;46.50
62154;DHT22;48140;45.486;9.226;2023-01-25T14:28:27;19.40;45.50
62154;DHT22;48140;45.486;9.226;2023-01-25T15:02:10;13.60;72.10
62154;DHT22;48140;45.486;9.226;2023-01-25T15:10:31;12.60;78.00
62154;DHT22;48140;45.486;9.226;2023-01-25T15:18:03;11.70;81.20
62154;DHT22;48140;45.486;9.226;2023-01-25T15:23:22;11.30;84.30
62154;DHT22;48140;45.486;9.226;2023-01-25T15:25:59;11.10;85.80
62154;DHT22;48140;45.486;9.226;2023-01-25T17:47:12;8.40;96.90
62154;DHT22;48140;45.486;9.226;2023-01-25T17:49:38;8.40;96.90
62154;DHT22;48140;45.486;9.226;2023-01-25T17:52:04;8.40;97.00
62154;DHT22;48140;45.486;9.226;2023-01-25T17:54:39;8.40;96.90
62154;DHT22;48140;45.486;9.226;2023-01-25T17:57:05;8.40;97.20
62154;DHT22;48140;45.486;9.226;2023-01-25T17:59:30;8.40;97.00
62154;DHT22;48140;45.486;9.226;2023-01-25T18:14:53;8.50;97.30
62154;DHT22;48140;45.486;9.226;2023-01-25T18:17:18;8.50;97.40
62154;DHT22;48140;45.486;9.226;2023-01-25T18:22:19;8.40;97.80
62154;DHT22;48140;45.486;9.226;2023-01-25T18:24:45;8.90;97.90
62154;DHT22;48140;45.486;9.226;2023-01-25T18:27:23;8.40;97.30
62154;DHT22;48140;45.486;9.226;2023-01-25T18:30:26;8.30;97.90
62154;DHT22;48140;45.486;9.226;2023-01-25T18:32:54;8.30;97.60
62154;DHT22;48140;45.486;9.226;2023-01-25T18:35:19;8.30;97.60
62154;DHT22;48140;45.486;9.226;2023-01-25T18:37:45;8.20;97.60
62154;DHT22;48140;45.486;9.226;2023-01-25T18:40:13;8.20;97.70
62154;DHT22;48140;45.486;9.226;2023-01-25T18:42:39;8.10;97.80
62154;DHT22;48140;45.486;9.226;2023-01-25T18:45:06;8.10;98.10
62154;DHT22;48140;45.486;9.226;2023-01-25T18:47:33;8.00;98.20
62154;DHT22;48140;45.486;9.226;2023-01-25T18:49:59;8.00;98.10
62154;DHT22;48140;45.486;9.226;2023-01-25T18:52:24;8.00;98.20
62154;DHT22;48140;45.486;9.226;2023-01-25T18:54:51;8.20;98.30
62154;DHT22;48140;45.486;9.226;2023-01-25T18:57:17;8.10;98.50
62154;DHT22;48140;45.486;9.226;2023-01-25T18:59:43;8.00;98.50
62154;DHT22;48140;45.486;9.226;2023-01-25T19:02:10;8.00;98.50
62154;DHT22;48140;45.486;9.226;2023-01-25T19:04:36;8.00;98.50
62154;DHT22;48140;45.486;9.226;2023-01-25T19:07:05;8.00;98.50
62154;DHT22;48140;45.486;9.226;2023-01-25T19:09:30;8.00;98.10
62154;DHT22;48140;45.486;9.226;2023-01-25T19:19:42;7.80;98.10
62154;DHT22;48140;45.486;9.226;2023-01-25T19:22:08;8.50;98.30
62154;DHT22;48140;45.486;9.226;2023-01-25T19:24:34;7.80;98.40
62154;DHT22;48140;45.486;9.226;2023-01-25T19:27:00;7.90;98.30
62154;DHT22;48140;45.486;9.226;2023-01-25T19:32:01;7.90;98.40
62154;DHT22;48140;45.486;9.226;2023-01-25T19:34:27;7.90;98.10
62154;DHT22;48140;45.486;9.226;2023-01-25T19:36:52;7.90;98.00
62154;DHT22;48140;45.486;9.226;2023-01-25T19:39:18;8.70;98.40
62154;DHT22;48140;45.486;9.226;2023-01-25T19:41:45;7.90;98.00
62154;DHT22;48140;45.486;9.226;2023-01-25T20:07:30;7.70;97.20
62154;DHT22;48140;45.486;9.226;2023-01-25T21:06:53;7.70;97.30
62154;DHT22;48140;45.486;9.226;2023-01-25T21:09:19;7.70;97.20
62154;DHT22;48140;45.486;9.226;2023-01-25T21:11:46;7.70;97.10
62154;DHT22;48140;45.486;9.226;2023-01-25T21:19:23;7.60;97.40
62154;DHT22;48140;45.486;9.226;2023-01-25T21:27:00;7.40;98.40
62154;DHT22;48140;45.486;9.226;2023-01-25T21:29:25;7.40;98.70
62154;DHT22;48140;45.486;9.226;2023-01-25T21:31:51;7.40;99.00
62154;DHT22;48140;45.486;9.226;2023-01-25T21:34:18;7.40;99.30
62154;DHT22;48140;45.486;9.226;2023-01-25T21:39:19;7.30;99.90
62154;DHT22;48140;45.486;9.226;2023-01-25T21:41:45;7.40;99.90
62154;DHT22;48140;45.486;9.226;2023-01-25T21:44:10;7.40;99.90
62154;DHT22;48140;45.486;9.226;2023-01-25T21:46:55;7.40;99.90
62154;DHT22;48140;45.486;9.226;2023-01-25T21:49:21;7.30;99.90
62154;DHT22;48140;45.486;9.226;2023-01-25T21:57:15;7.40;99.90
62154;DHT22;48140;45.486;9.226;2023-01-25T21:59:41;7.40;99.90
62154;DHT22;48140;45.486;9.226;2023-01-25T22:02:10;7.40;99.90
62154;DHT22;48140;45.486;9.226;2023-01-25T22:04:37;7.40;99.90
62154;DHT22;48140;45.486;9.226;2023-01-25T22:07:04;7.50;99.90
62154;DHT22;48140;45.486;9.226;2023-01-25T22:09:30;7.50;99.90
62154;DHT22;48140;45.486;9.226;2023-01-25T22:11:56;7.60;99.90
62154;DHT22;48140;45.486;9.226;2023-01-25T22:14:21;7.60;99.90
62154;DHT22;48140;45.486;9.226;2023-01-25T22:16:48;7.80;99.90
62154;DHT22;48140;45.486;9.226;2023-01-25T22:19:14;7.70;99.90
62154;DHT22;48140;45.486;9.226;2023-01-25T22:21:42;7.70;99.60
62154;DHT22;48140;45.486;9.226;2023-01-25T22:29:18;7.60;99.90
62154;DHT22;48140;45.486;9.226;2023-01-25T22:31:44;7.60;99.90
62154;DHT22;48140;45.486;9.226;2023-01-25T22:36:45;7.60;99.80
62154;DHT22;48140;45.486;9.226;2023-01-25T22:39:14;7.70;99.60
62154;DHT22;48140;45.486;9.226;2023-01-25T22:41:40;7.70;99.50
62154;DHT22;48140;45.486;9.226;2023-01-25T22:44:06;7.60;99.50
62154;DHT22;48140;45.486;9.226;2023-01-25T22:46:32;7.60;99.60
62154;DHT22;48140;45.486;9.226;2023-01-25T22:48:58;7.60;99.50
62154;DHT22;48140;45.486;9.226;2023-01-25T22:53:59;7.40;99.90
62154;DHT22;48140;45.486;9.226;2023-01-25T22:56:27;7.40;99.90
62154;DHT22;48140;45.486;9.226;2023-01-25T22:58:54;7.40;99.90
62154;DHT22;48140;45.486;9.226;2023-01-25T23:01:28;7.40;99.90
62154;DHT22;48140;45.486;9.226;2023-01-25T23:03:54;7.40;99.90
62154;DHT22;48140;45.486;9.226;2023-01-25T23:06:26;7.40;99.90
62154;DHT22;48140;45.486;9.226;2023-01-25T23:08:57;7.50;99.90
62154;DHT22;48140;45.486;9.226;2023-01-25T23:11:25;7.30;99.90
62154;DHT22;48140;45.486;9.226;2023-01-25T23:13:57;7.30;99.90
62154;DHT22;48140;45.486;9.226;2023-01-25T23:16:41;7.30;99.90
62154;DHT22;48140;45.486;9.226;2023-01-25T23:19:07;7.30;99.90
62154;DHT22;48140;45.486;9.226;2023-01-25T23:21:33;7.30;99.90
